Time;durP1;ratioP1;P1;durP2;ratioP2;P2;SDS_P1;SDS_P2;PMS_P1;PMS_P2;Temp;Humidity;BMP_temperature;BMP_pressure;BME280_temperature;BME280_humidity;BME280_pressure;Samples;Min_cycle;Max_cycle;Signal;HPM_P1;HPM_P2
2022/05/03 00:01:32;;;;;;;8.82;6.72;;;9.00;99.90;;;;;;5061515;28;20053;-66
2022/05/03 00:04:12;;;;;;;9.18;6.65;;;9.00;99.90;;;;;;5048225;28;20151;-66
2022/05/03 00:06:56;;;;;;;11.32;6.93;;;8.90;99.90;;;;;;5048449;28;20047;-66
2022/05/03 00:09:51;;;;;;;8.93;6.25;;;8.80;99.90;;;;;;5047212;28;20105;-67
2022/05/03 00:12:23;;;;;;;9.30;6.88;;;8.80;99.90;;;;;;5025538;28;20550;-66
2022/05/03 00:14:56;;;;;;;8.60;6.25;;;8.80;99.90;;;;;;5046990;28;20051;-66
2022/05/03 00:17:22;;;;;;;12.88;7.10;;;8.80;99.90;;;;;;5029769;28;20418;-67
2022/05/03 00:19:48;;;;;;;10.95;7.03;;;8.80;99.90;;;;;;5047396;28;20082;-66
2022/05/03 00:22:15;;;;;;;11.35;7.30;;;8.70;99.90;;;;;;5029432;28;20080;-66
2022/05/03 00:24:41;;;;;;;13.77;8.18;;;8.70;99.90;;;;;;5027079;28;20574;-66
2022/05/03 00:27:07;;;;;;;8.95;7.25;;;8.70;99.90;;;;;;5028770;28;20076;-66
2022/05/03 00:29:33;;;;;;;11.90;8.10;;;8.70;99.90;;;;;;5026802;28;20084;-66
2022/05/03 00:32:02;;;;;;;10.35;7.53;;;8.60;99.90;;;;;;5024173;28;20438;-66
2022/05/03 00:34:30;;;;;;;10.45;7.53;;;8.60;99.90;;;;;;5023429;28;20068;-66
2022/05/03 00:36:56;;;;;;;10.07;7.63;;;8.60;99.90;;;;;;5028172;28;20041;-66
2022/05/03 00:39:21;;;;;;;11.13;7.78;;;8.50;99.90;;;;;;5027760;28;20111;-66
2022/05/03 00:41:58;;;;;;;10.00;7.50;;;8.60;99.90;;;;;;5028595;28;20486;-67
2022/05/03 00:44:56;;;;;;;9.15;7.63;;;8.50;99.90;;;;;;5006813;28;20129;-67
2022/05/03 00:47:51;;;;;;;12.70;8.30;;;8.50;99.90;;;;;;5012950;28;20038;-67
2022/05/03 00:50:49;;;;;;;11.25;7.97;;;8.40;99.90;;;;;;5047047;28;20153;-67
2022/05/03 00:53:30;;;;;;;11.73;7.60;;;8.40;99.90;;;;;;5029752;28;20053;-67
2022/05/03 00:56:31;;;;;;;11.90;8.30;;;8.40;99.90;;;;;;5029738;28;20492;-67
2022/05/03 00:59:08;;;;;;;11.38;7.97;;;8.40;99.90;;;;;;4988541;28;20125;-66
2022/05/03 01:01:49;;;;;;;9.35;7.95;;;8.40;99.90;;;;;;5026604;28;20053;-67
2022/05/03 01:04:25;;;;;;;13.30;7.70;;;8.40;99.90;;;;;;5012859;28;20128;-67
2022/05/03 01:06:53;;;;;;;12.00;8.32;;;8.40;99.90;;;;;;5033488;28;20037;-67
2022/05/03 01:09:41;;;;;;;11.25;8.70;;;8.40;99.90;;;;;;5013163;28;20049;-66
2022/05/03 01:12:24;;;;;;;10.07;8.38;;;8.30;99.90;;;;;;5010838;28;20041;-66
2022/05/03 01:15:11;;;;;;;10.18;8.52;;;8.20;99.90;;;;;;5012942;28;20050;-66
2022/05/03 01:17:52;;;;;;;10.73;9.52;;;8.10;99.90;;;;;;5031292;28;20056;-66
2022/05/03 01:20:38;;;;;;;10.32;8.35;;;8.20;99.90;;;;;;5014711;28;20075;-66
2022/05/03 01:23:33;;;;;;;12.63;9.77;;;8.10;99.90;;;;;;5031290;28;20153;-66
2022/05/03 01:26:08;;;;;;;12.35;9.43;;;8.00;99.90;;;;;;5031083;28;20056;-66
2022/05/03 01:29:04;;;;;;;11.82;9.68;;;7.90;99.90;;;;;;5031845;28;20099;-66
2022/05/03 01:31:29;;;;;;;12.73;9.90;;;7.90;99.90;;;;;;5032173;28;20089;-66
2022/05/03 01:34:01;;;;;;;12.63;9.38;;;7.90;99.90;;;;;;5046298;28;20085;-66
2022/05/03 01:37:00;;;;;;;11.02;9.38;;;7.80;99.90;;;;;;5031914;28;20050;-67
2022/05/03 01:39:38;;;;;;;13.73;10.48;;;7.80;99.90;;;;;;5028968;28;20045;-67
2022/05/03 01:42:21;;;;;;;13.40;10.23;;;7.80;99.90;;;;;;5031701;28;20037;-67
2022/05/03 01:45:10;;;;;;;12.48;9.85;;;7.80;99.90;;;;;;5029645;28;20052;-67
2022/05/03 01:48:09;;;;;;;11.50;9.75;;;7.80;99.90;;;;;;5029423;28;20084;-66
2022/05/03 01:51:00;;;;;;;10.75;9.10;;;7.70;99.90;;;;;;5030381;28;20180;-66
2022/05/03 01:53:45;;;;;;;11.65;9.43;;;7.80;99.90;;;;;;5028789;28;20081;-67
2022/05/03 01:56:29;;;;;;;11.32;9.23;;;7.70;99.90;;;;;;5032273;28;20052;-66
2022/05/03 01:59:04;;;;;;;10.57;9.48;;;7.70;99.90;;;;;;5030399;28;20136;-67
2022/05/03 02:01:43;;;;;;;10.77;9.25;;;7.70;99.90;;;;;;5010533;28;20045;-67
2022/05/03 02:04:23;;;;;;;11.93;9.40;;;7.70;99.90;;;;;;5026484;28;20056;-66
2022/05/03 02:07:04;;;;;;;11.38;10.18;;;7.70;99.90;;;;;;5011535;28;20088;-67
2022/05/03 02:09:49;;;;;;;12.20;9.93;;;7.70;99.90;;;;;;5029073;28;20049;-66
2022/05/03 02:12:15;;;;;;;12.80;10.05;;;7.70;99.90;;;;;;5013082;28;20056;-67
2022/05/03 02:14:47;;;;;;;12.85;9.88;;;7.70;99.90;;;;;;5010688;28;20041;-67
2022/05/03 02:17:31;;;;;;;12.27;9.85;;;7.70;99.90;;;;;;5043944;28;20452;-67
2022/05/03 02:20:21;;;;;;;14.35;10.95;;;7.60;99.90;;;;;;5051170;28;20041;-67
2022/05/03 02:23:28;;;;;;;14.43;11.20;;;7.60;99.90;;;;;;5051769;28;20401;-67
2022/05/03 02:26:23;;;;;;;14.60;11.05;;;7.50;99.90;;;;;;5020794;28;20048;-67
2022/05/03 02:28:57;;;;;;;12.55;10.73;;;7.50;99.90;;;;;;5048526;28;20120;-67
2022/05/03 02:31:44;;;;;;;12.35;10.82;;;7.50;99.90;;;;;;5049994;28;20064;-67
2022/05/03 02:34:18;;;;;;;14.50;10.77;;;7.50;99.90;;;;;;5050297;28;20436;-67
2022/05/03 02:36:55;;;;;;;13.50;11.50;;;7.50;99.90;;;;;;5049273;28;20432;-67
2022/05/03 02:39:26;;;;;;;15.13;11.07;;;7.60;99.90;;;;;;5049283;28;20037;-67
2022/05/03 02:41:58;;;;;;;13.18;11.15;;;7.60;99.90;;;;;;5050451;28;20510;-67
2022/05/03 02:44:28;;;;;;;13.60;11.20;;;7.70;99.90;;;;;;5049705;28;20390;-67
2022/05/03 02:47:05;;;;;;;13.32;11.52;;;7.70;99.90;;;;;;5048870;28;20048;-67
2022/05/03 02:49:39;;;;;;;14.27;11.20;;;7.70;99.90;;;;;;5049546;28;20045;-67
2022/05/03 02:52:11;;;;;;;13.32;11.27;;;7.80;99.90;;;;;;5028630;28;20044;-67
2022/05/03 02:55:17;;;;;;;15.95;11.73;;;7.80;99.90;;;;;;5049039;28;20532;-67
2022/05/03 02:57:58;;;;;;;14.57;11.65;;;7.90;99.90;;;;;;5048558;28;20029;-67
2022/05/03 03:03:31;;;;;;;15.32;11.88;;;7.90;99.90;;;;;;5048867;28;20049;-66
2022/05/03 03:05:59;;;;;;;15.10;11.98;;;8.50;99.90;;;;;;5048123;28;20037;-67
2022/05/03 03:08:31;;;;;;;16.90;12.38;;;8.00;99.90;;;;;;5048567;28;20048;-67
2022/05/03 03:11:07;;;;;;;16.42;12.00;;;8.10;99.90;;;;;;5049052;28;20052;-67
2022/05/03 03:14:00;;;;;;;16.33;12.80;;;8.10;99.90;;;;;;5048446;28;20378;-67
2022/05/03 03:16:31;;;;;;;16.63;13.43;;;8.10;99.90;;;;;;5029753;28;20057;-67
2022/05/03 03:19:18;;;;;;;16.00;13.77;;;8.10;99.90;;;;;;5030179;28;20139;-67
2022/05/03 03:21:48;;;;;;;18.02;13.63;;;8.20;99.90;;;;;;5047935;28;20532;-67
2022/05/03 03:24:15;;;;;;;21.83;14.13;;;8.20;99.90;;;;;;5049597;28;20079;-67
2022/05/03 03:26:43;;;;;;;18.90;15.05;;;8.30;99.90;;;;;;5049824;28;20328;-67
2022/05/03 03:29:10;;;;;;;18.00;14.65;;;8.30;99.90;;;;;;5048542;28;20052;-66
2022/05/03 03:31:36;;;;;;;15.77;13.10;;;8.30;99.90;;;;;;5048300;28;20427;-68
2022/05/03 03:34:05;;;;;;;17.38;12.70;;;8.30;99.90;;;;;;5049252;28;20048;-67
2022/05/03 03:36:32;;;;;;;17.92;13.65;;;8.30;99.90;;;;;;5031269;28;20049;-67
2022/05/03 03:38:59;;;;;;;14.65;12.02;;;8.30;99.90;;;;;;5047557;28;20047;-67
2022/05/03 03:41:26;;;;;;;19.17;13.45;;;8.30;99.90;;;;;;5027838;28;20052;-66
2022/05/03 03:43:55;;;;;;;17.35;13.05;;;8.90;99.90;;;;;;5046520;28;20439;-67
2022/05/03 03:46:21;;;;;;;16.90;13.95;;;8.30;99.90;;;;;;5046041;28;20486;-67
2022/05/03 03:48:47;;;;;;;18.88;14.38;;;8.30;99.90;;;;;;5047113;28;20041;-67
2022/05/03 03:51:14;;;;;;;16.70;14.50;;;8.50;99.90;;;;;;5047182;28;20037;-67
2022/05/03 03:53:40;;;;;;;17.63;13.32;;;8.80;99.90;;;;;;5045370;28;20045;-68
2022/05/03 03:56:06;;;;;;;18.33;14.40;;;8.40;99.90;;;;;;5046653;28;20146;-67
2022/05/03 03:58:33;;;;;;;19.13;14.77;;;8.40;99.90;;;;;;5045259;28;20132;-67
2022/05/03 04:00:59;;;;;;;18.17;13.88;;;8.40;99.90;;;;;;5046285;28;20041;-67
2022/05/03 04:03:26;;;;;;;19.38;14.40;;;8.40;99.90;;;;;;5045891;28;20072;-67
2022/05/03 04:05:52;;;;;;;17.50;14.02;;;8.40;99.90;;;;;;5025339;28;20049;-67
2022/05/03 04:08:17;;;;;;;17.00;14.02;;;8.40;99.90;;;;;;5028381;28;20084;-68
2022/05/03 04:10:43;;;;;;;18.67;14.95;;;8.40;99.90;;;;;;5048091;28;20338;-67
2022/05/03 04:13:13;;;;;;;18.73;15.48;;;8.40;99.90;;;;;;5048474;28;20539;-67
2022/05/03 04:15:39;;;;;;;16.33;14.10;;;8.40;99.90;;;;;;5047073;28;20048;-67
2022/05/03 04:18:08;;;;;;;20.10;14.88;;;8.50;99.90;;;;;;5052352;28;20048;-67
2022/05/03 04:20:34;;;;;;;20.27;16.20;;;8.80;99.90;;;;;;5049900;28;20505;-67
2022/05/03 04:23:00;;;;;;;19.52;16.20;;;8.50;99.90;;;;;;5067598;28;20056;-67
2022/05/03 04:25:26;;;;;;;20.92;16.50;;;8.60;99.90;;;;;;5068990;28;20040;-67
2022/05/03 04:27:51;;;;;;;21.70;15.82;;;8.60;99.90;;;;;;5066973;28;20540;-67
2022/05/03 04:30:17;;;;;;;22.05;16.08;;;8.60;99.90;;;;;;5048488;28;20056;-68
2022/05/03 04:32:43;;;;;;;21.27;17.15;;;8.50;99.90;;;;;;5047543;28;20477;-67
2022/05/03 04:35:09;;;;;;;22.15;17.30;;;8.60;99.90;;;;;;5047983;28;20041;-67
2022/05/03 04:37:35;;;;;;;24.00;16.80;;;8.60;99.90;;;;;;5047976;28;20040;-67
2022/05/03 04:40:00;;;;;;;23.77;16.98;;;8.60;99.90;;;;;;5047498;28;20417;-67
2022/05/03 04:42:26;;;;;;;24.23;18.38;;;8.70;99.90;;;;;;5029923;28;20591;-67
2022/05/03 04:44:52;;;;;;;22.75;17.83;;;8.70;99.90;;;;;;5046660;28;20087;-67
2022/05/03 04:47:17;;;;;;;24.90;19.30;;;8.70;99.90;;;;;;5030411;28;20044;-67
2022/05/03 04:49:43;;;;;;;24.90;18.88;;;8.70;99.90;;;;;;5046950;28;20044;-67
2022/05/03 04:52:09;;;;;;;26.48;18.65;;;9.10;99.90;;;;;;5048082;28;20440;-66
2022/05/03 04:54:36;;;;;;;24.27;19.10;;;8.80;99.90;;;;;;5047312;28;20431;-67
2022/05/03 04:57:04;;;;;;;24.23;18.10;;;8.80;99.90;;;;;;5034771;28;20067;-67
2022/05/03 04:59:30;;;;;;;24.80;18.40;;;8.80;99.90;;;;;;5049013;28;20060;-67
2022/05/03 05:01:56;;;;;;;25.95;18.63;;;8.80;99.90;;;;;;5067805;28;20393;-68
2022/05/03 05:04:21;;;;;;;24.23;17.67;;;8.90;99.90;;;;;;5037931;28;20056;-67
2022/05/03 05:06:47;;;;;;;22.40;17.48;;;8.80;99.90;;;;;;5047645;28;20029;-67
2022/05/03 05:09:12;;;;;;;27.35;18.88;;;8.90;99.90;;;;;;5045823;28;20072;-67
2022/05/03 05:11:38;;;;;;;25.85;18.45;;;8.90;99.90;;;;;;5045951;28;20083;-67
2022/05/03 05:14:03;;;;;;;27.08;18.00;;;9.00;99.90;;;;;;5068157;28;20036;-67
2022/05/03 05:16:29;;;;;;;25.35;19.52;;;9.00;99.90;;;;;;5067525;28;20044;-67
2022/05/03 05:18:55;;;;;;;29.92;19.83;;;9.10;99.90;;;;;;5066929;28;20048;-67
2022/05/03 05:21:20;;;;;;;28.60;20.63;;;9.10;99.90;;;;;;5067513;28;20473;-67
2022/05/03 05:23:46;;;;;;;31.67;20.42;;;9.00;99.90;;;;;;5063946;28;20036;-67
2022/05/03 05:26:12;;;;;;;26.88;20.33;;;9.10;99.90;;;;;;5049394;28;20124;-67
2022/05/03 05:28:37;;;;;;;27.33;20.08;;;9.10;99.90;;;;;;5046453;28;20040;-68
2022/05/03 05:31:03;;;;;;;25.50;19.73;;;9.10;99.90;;;;;;5047618;28;20063;-66
2022/05/03 05:33:29;;;;;;;26.95;20.52;;;9.10;99.90;;;;;;5046747;28;20036;-67
2022/05/03 05:35:54;;;;;;;28.20;19.60;;;9.20;99.90;;;;;;5047741;28;20048;-67
2022/05/03 05:38:20;;;;;;;26.35;18.98;;;10.60;99.90;;;;;;5045510;28;20057;-67
2022/05/03 05:40:47;;;;;;;27.38;20.67;;;9.20;99.90;;;;;;5045992;28;20040;-66
2022/05/03 05:43:14;;;;;;;27.33;19.77;;;9.20;99.90;;;;;;5029844;28;20049;-66
2022/05/03 05:45:40;;;;;;;33.47;21.33;;;9.20;99.90;;;;;;5030734;28;20482;-66
2022/05/03 05:48:08;;;;;;;29.80;22.27;;;10.10;99.90;;;;;;5049940;28;20155;-67
2022/05/03 05:50:34;;;;;;;32.88;23.10;;;9.20;99.90;;;;;;5052224;28;20119;-68
2022/05/03 05:55:44;;;;;;;34.97;24.65;;;9.30;99.90;;;;;;5032670;28;20055;-67
2022/05/03 05:58:09;;;;;;;36.35;25.30;;;9.30;99.90;;;;;;5050575;28;20151;-67
2022/05/03 06:00:35;;;;;;;40.17;26.17;;;9.30;99.90;;;;;;5047929;28;20045;-67
2022/05/03 06:03:01;;;;;;;42.38;25.98;;;9.40;99.90;;;;;;5048568;28;20049;-67
2022/05/03 06:05:27;;;;;;;37.92;25.67;;;9.90;99.90;;;;;;5063232;28;20049;-67
2022/05/03 06:07:53;;;;;;;37.97;25.17;;;9.50;99.90;;;;;;5049678;28;20044;-67
2022/05/03 06:10:20;;;;;;;38.42;26.00;;;10.30;99.90;;;;;;5050187;28;20473;-67
2022/05/03 06:12:47;;;;;;;37.00;24.38;;;9.60;99.90;;;;;;5050565;28;20049;-67
2022/05/03 06:15:13;;;;;;;33.25;23.35;;;9.70;99.90;;;;;;5048860;28;20522;-68
2022/05/03 06:17:40;;;;;;;32.35;21.42;;;9.80;99.90;;;;;;5049870;28;20048;-68
2022/05/03 06:20:10;;;;;;;34.33;20.13;;;9.80;99.90;;;;;;5049905;28;20095;-69
2022/05/03 06:22:36;;;;;;;31.70;17.58;;;9.90;99.90;;;;;;5027775;28;20383;-67
2022/05/03 06:25:03;;;;;;;29.27;15.75;;;10.00;99.90;;;;;;5047545;28;20536;-67
2022/05/03 06:27:28;;;;;;;26.08;13.75;;;10.00;99.90;;;;;;5047222;28;20048;-68
2022/05/03 06:29:54;;;;;;;23.70;11.02;;;10.10;99.90;;;;;;5044841;28;20049;-68
2022/05/03 06:32:19;;;;;;;21.80;9.30;;;10.20;99.90;;;;;;5028354;28;20116;-68
2022/05/03 06:34:45;;;;;;;19.20;8.10;;;10.10;99.90;;;;;;5044869;28;20049;-68
2022/05/03 06:37:17;;;;;;;17.35;7.57;;;10.10;99.90;;;;;;5046906;28;20051;-67
2022/05/03 06:39:42;;;;;;;15.02;5.90;;;10.30;99.90;;;;;;5044165;28;20045;-68
2022/05/03 06:42:08;;;;;;;12.88;5.57;;;10.20;99.90;;;;;;5046442;28;20044;-67
2022/05/03 06:44:34;;;;;;;14.00;4.90;;;10.20;99.90;;;;;;5044591;28;20195;-68
2022/05/03 06:47:00;;;;;;;16.52;4.88;;;10.20;99.90;;;;;;5048430;28;20059;-68
2022/05/03 06:49:25;;;;;;;10.93;4.75;;;10.20;99.90;;;;;;5029724;28;20497;-67
2022/05/03 06:51:51;;;;;;;14.55;5.00;;;10.20;99.90;;;;;;5049101;28;20071;-67
2022/05/03 12:01:34;;;;;;;7.45;2.38;;;19.60;86.10;;;;;;5948121;23;20028;-86
2022/05/03 12:04:18;;;;;;;8.85;2.33;;;21.00;85.80;;;;;;4938703;28;20182;-88
2022/05/03 12:07:04;;;;;;;7.30;2.10;;;21.80;82.70;;;;;;4938524;29;20035;-89
2022/05/03 12:21:39;;;;;;;8.15;2.50;;;23.20;71.30;;;;;;4953244;23;20096;-89
2022/05/03 12:24:34;;;;;;;12.10;2.50;;;23.50;71.50;;;;;;4976058;23;20213;-68
2022/05/03 12:27:11;;;;;;;6.32;2.10;;;24.30;69.50;;;;;;5010724;28;20057;-69
2022/05/03 12:29:42;;;;;;;7.40;2.28;;;24.10;68.40;;;;;;5012045;28;20168;-69
2022/05/03 12:32:16;;;;;;;6.50;1.83;;;23.30;68.30;;;;;;4992966;28;20053;-68
2022/05/03 12:34:57;;;;;;;7.25;2.03;;;22.50;69.30;;;;;;5009812;28;20112;-68
2022/05/03 12:37:24;;;;;;;9.85;2.00;;;22.00;69.90;;;;;;4991575;28;20064;-67
2022/05/03 12:39:50;;;;;;;6.60;2.30;;;21.30;70.90;;;;;;5009037;28;20064;-67
2022/05/03 12:42:16;;;;;;;6.80;2.30;;;20.70;72.30;;;;;;5006647;28;20041;-68
2022/05/03 12:44:57;;;;;;;10.60;2.40;;;20.60;75.10;;;;;;5007416;28;20148;-68
2022/05/03 12:47:26;;;;;;;7.82;2.20;;;20.20;76.50;;;;;;4992225;28;20121;-68
2022/05/03 12:49:52;;;;;;;8.98;2.30;;;20.00;77.30;;;;;;5008228;28;20049;-68
2022/05/03 12:52:18;;;;;;;8.35;2.35;;;20.00;77.50;;;;;;4996652;28;20038;-68
2022/05/03 12:54:48;;;;;;;8.77;2.45;;;20.00;78.30;;;;;;4988379;28;20049;-68
2022/05/03 12:59:58;;;;;;;12.30;2.40;;;19.50;79.40;;;;;;4995795;28;20050;-68
2022/05/03 13:02:24;;;;;;;6.70;2.13;;;19.20;79.70;;;;;;5008019;28;20053;-68
2022/05/03 13:04:50;;;;;;;5.90;1.83;;;18.60;80.80;;;;;;5008264;28;20042;-67
2022/05/03 13:07:17;;;;;;;6.78;2.22;;;18.50;82.80;;;;;;5007302;28;20061;-67
2022/05/03 13:09:43;;;;;;;8.10;2.42;;;18.60;82.80;;;;;;5008612;28;20045;-67
2022/05/03 13:12:09;;;;;;;9.57;2.35;;;18.30;84.10;;;;;;5006595;28;20407;-67
2022/05/03 13:14:36;;;;;;;7.72;2.45;;;18.10;85.10;;;;;;4989418;28;20072;-67
2022/05/03 13:17:02;;;;;;;8.05;2.58;;;18.10;85.80;;;;;;5009541;28;20137;-67
2022/05/03 13:19:28;;;;;;;12.00;2.47;;;17.90;86.80;;;;;;5008166;28;20195;-68
2022/05/03 13:21:56;;;;;;;7.53;2.45;;;17.90;87.70;;;;;;5007802;28;20054;-68
2022/05/03 13:24:22;;;;;;;7.55;2.13;;;18.00;88.20;;;;;;5007541;28;20037;-68
2022/05/03 13:26:48;;;;;;;7.13;2.20;;;18.00;88.50;;;;;;5007197;28;20568;-69
2022/05/03 13:29:16;;;;;;;8.88;2.47;;;18.00;89.80;;;;;;5007213;28;20034;-68
2022/05/03 13:31:43;;;;;;;8.60;2.42;;;18.10;88.90;;;;;;5015262;28;20049;-67
2022/05/03 13:34:10;;;;;;;10.05;2.50;;;18.10;89.10;;;;;;5007029;28;20481;-68
2022/05/03 13:42:05;;;;;;;9.07;2.30;;;18.30;90.20;;;;;;5001502;28;20149;-67
2022/05/03 13:44:32;;;;;;;8.57;2.45;;;18.60;88.50;;;;;;4988989;28;20074;-67
2022/05/03 13:46:58;;;;;;;8.45;2.17;;;18.50;87.30;;;;;;4990683;28;20394;-67
2022/05/03 13:49:24;;;;;;;10.07;2.67;;;18.20;88.80;;;;;;5006969;28;20378;-67
2022/05/03 13:51:50;;;;;;;10.70;2.50;;;18.10;89.60;;;;;;5007621;28;20076;-67
2022/05/03 13:54:18;;;;;;;6.63;2.10;;;18.10;89.00;;;;;;5007755;28;20425;-67
2022/05/03 13:56:44;;;;;;;5.53;2.13;;;18.10;89.40;;;;;;5006629;28;20068;-68
2022/05/03 13:59:09;;;;;;;8.48;2.30;;;18.20;89.90;;;;;;5008266;28;20409;-67
2022/05/03 14:01:37;;;;;;;10.60;2.40;;;18.30;89.70;;;;;;5007974;28;20054;-68
2022/05/03 14:04:03;;;;;;;6.75;2.30;;;18.30;89.50;;;;;;4989128;28;20053;-68
2022/05/03 14:06:29;;;;;;;7.90;2.25;;;18.20;89.60;;;;;;5012335;28;20046;-67
2022/05/03 14:08:55;;;;;;;9.10;2.22;;;18.40;88.30;;;;;;5010465;28;20539;-67
2022/05/03 14:11:21;;;;;;;10.35;2.83;;;18.00;88.80;;;;;;4992674;28;20042;-67
2022/05/03 14:13:47;;;;;;;11.18;2.45;;;18.00;89.50;;;;;;4991258;28;20085;-67
2022/05/03 14:16:16;;;;;;;8.27;2.50;;;17.90;90.00;;;;;;5009204;28;20120;-67
2022/05/03 14:18:46;;;;;;;9.73;2.70;;;17.60;90.40;;;;;;5009647;28;20053;-67
2022/05/03 14:21:12;;;;;;;11.15;2.58;;;17.50;90.70;;;;;;5009705;28;20108;-67
2022/05/03 14:23:40;;;;;;;10.27;2.60;;;17.30;91.10;;;;;;5009816;28;20044;-68
2022/05/03 14:26:07;;;;;;;8.30;2.42;;;17.30;91.30;;;;;;4992139;28;20061;-67
2022/05/03 14:28:33;;;;;;;7.50;2.25;;;17.30;91.00;;;;;;5009783;28;20085;-67
2022/05/03 14:30:59;;;;;;;9.80;2.58;;;17.10;91.50;;;;;;5004371;28;20470;-67
2022/05/03 14:33:25;;;;;;;12.85;2.70;;;17.10;91.80;;;;;;4989331;28;20056;-67
2022/05/03 14:35:50;;;;;;;9.70;2.53;;;17.00;92.00;;;;;;5006591;28;20096;-67
2022/05/03 14:38:16;;;;;;;11.18;2.90;;;17.00;92.20;;;;;;5005855;28;20564;-67
2022/05/03 14:40:42;;;;;;;9.32;2.70;;;17.00;92.40;;;;;;5006048;28;20077;-67
2022/05/03 14:43:09;;;;;;;11.88;2.78;;;17.20;92.40;;;;;;5006377;28;20067;-66
2022/05/03 14:45:35;;;;;;;6.43;2.28;;;17.30;92.30;;;;;;5005755;28;20053;-67
2022/05/03 14:48:06;;;;;;;7.55;2.20;;;17.10;92.50;;;;;;4988109;28;20045;-67
2022/05/03 14:50:32;;;;;;;7.65;2.42;;;17.20;92.30;;;;;;5006451;28;20049;-67
2022/05/03 14:52:58;;;;;;;10.15;2.47;;;17.20;92.20;;;;;;5004094;28;20493;-67
2022/05/03 14:55:24;;;;;;;6.43;2.47;;;17.00;91.90;;;;;;4988703;28;20057;-67
2022/05/03 15:03:19;;;;;;;8.38;2.88;;;16.90;93.00;;;;;;4987537;28;20053;-66
2022/05/03 15:05:44;;;;;;;8.55;2.60;;;17.00;93.00;;;;;;5005311;28;20052;-66
2022/05/03 15:08:15;;;;;;;6.93;2.40;;;17.00;93.00;;;;;;5005678;28;20104;-67
2022/05/03 15:10:40;;;;;;;11.07;2.40;;;17.10;92.80;;;;;;5009480;28;20518;-67
2022/05/03 15:13:08;;;;;;;9.60;2.63;;;17.10;92.80;;;;;;5008884;28;20047;-67
2022/05/03 15:15:34;;;;;;;10.02;2.65;;;17.10;92.50;;;;;;5009321;28;20410;-68
2022/05/03 15:18:01;;;;;;;9.57;2.80;;;16.90;92.60;;;;;;4992047;28;20052;-68
2022/05/03 15:20:29;;;;;;;7.97;2.45;;;16.70;93.10;;;;;;5008174;28;20042;-67
2022/05/03 15:25:43;;;;;;;12.70;2.53;;;16.30;93.80;;;;;;5008818;28;20069;-67
2022/05/03 15:28:10;;;;;;;6.25;2.40;;;16.20;94.10;;;;;;4974584;28;20477;-67
2022/05/03 15:30:36;;;;;;;10.07;2.60;;;16.20;94.20;;;;;;5012077;28;20038;-67
2022/05/03 15:33:03;;;;;;;8.38;2.40;;;16.10;94.50;;;;;;5009969;28;20050;-67
2022/05/03 15:35:31;;;;;;;7.13;2.67;;;16.10;94.70;;;;;;5007997;28;20056;-67
2022/05/03 15:38:01;;;;;;;7.50;2.92;;;15.90;95.10;;;;;;5007818;28;20561;-67
2022/05/03 15:40:27;;;;;;;18.70;5.40;;;15.80;95.40;;;;;;5008621;28;20050;-66
2022/05/03 15:42:53;;;;;;;18.65;5.68;;;16.20;95.70;;;;;;4999780;28;20320;-66
2022/05/03 15:45:20;;;;;;;21.67;6.65;;;15.60;95.70;;;;;;5009155;28;20121;-66
2022/05/03 15:47:47;;;;;;;10.20;3.95;;;15.60;96.10;;;;;;5008304;28;20145;-66
2022/05/03 15:50:14;;;;;;;15.77;4.78;;;15.70;96.10;;;;;;5006955;28;20041;-66
2022/05/03 15:52:48;;;;;;;12.18;4.25;;;15.60;96.10;;;;;;5007887;28;20045;-68
2022/05/03 15:55:18;;;;;;;8.88;3.08;;;15.60;96.30;;;;;;4989059;28;20141;-67
2022/05/03 15:57:45;;;;;;;9.15;2.80;;;15.60;96.70;;;;;;5007468;28;20045;-68
2022/05/03 16:00:13;;;;;;;13.95;2.80;;;15.70;96.70;;;;;;5009113;28;20394;-67
2022/05/03 16:02:42;;;;;;;9.10;3.10;;;15.80;96.50;;;;;;5009046;28;20077;-67
2022/05/03 16:05:10;;;;;;;6.35;2.58;;;15.80;96.00;;;;;;5009234;28;20079;-67
2022/05/03 16:07:37;;;;;;;20.08;5.38;;;15.70;96.20;;;;;;5008787;28;20030;-67
2022/05/03 16:10:03;;;;;;;17.13;3.42;;;15.70;96.70;;;;;;5007178;28;20365;-67
2022/05/03 16:12:32;;;;;;;8.35;3.42;;;15.80;96.40;;;;;;4989780;28;20088;-67
2022/05/03 16:14:59;;;;;;;13.15;3.97;;;15.80;96.30;;;;;;4988397;28;20090;-67
2022/05/03 16:17:25;;;;;;;10.85;2.97;;;15.70;96.20;;;;;;4987270;28;20458;-67
2022/05/03 16:19:50;;;;;;;11.13;3.00;;;15.60;96.30;;;;;;4985392;28;20048;-67
2022/05/03 16:22:16;;;;;;;8.32;2.50;;;15.50;96.40;;;;;;4984884;28;20050;-67
2022/05/03 16:24:42;;;;;;;9.75;2.90;;;15.40;96.50;;;;;;4987298;28;20058;-66
2022/05/03 16:27:08;;;;;;;11.10;2.90;;;15.40;96.30;;;;;;4985961;28;20072;-67
2022/05/03 16:29:34;;;;;;;11.60;3.45;;;15.30;96.20;;;;;;5003526;28;20045;-67
2022/05/03 16:32:01;;;;;;;9.77;2.85;;;15.20;96.30;;;;;;5004731;28;20046;-68
2022/05/03 16:34:27;;;;;;;16.20;4.25;;;15.10;96.70;;;;;;5004758;28;20177;-67
2022/05/03 16:42:22;;;;;;;6.85;2.67;;;15.10;97.20;;;;;;5005188;28;20054;-67
2022/05/03 16:44:50;;;;;;;11.57;2.60;;;14.80;97.20;;;;;;5004797;28;20133;-67
2022/05/03 16:47:20;;;;;;;8.98;2.90;;;14.60;97.60;;;;;;5004695;28;20133;-67
2022/05/03 16:49:48;;;;;;;12.70;3.20;;;14.50;97.70;;;;;;5005103;28;20037;-68
2022/05/03 16:52:15;;;;;;;9.70;3.10;;;14.90;97.90;;;;;;5003585;28;20038;-67
2022/05/03 16:54:42;;;;;;;13.98;3.60;;;14.20;98.30;;;;;;4987319;28;20064;-67
2022/05/03 16:57:08;;;;;;;11.23;2.83;;;14.20;98.80;;;;;;5004108;28;20050;-67
2022/05/03 16:59:34;;;;;;;10.15;2.80;;;14.10;98.90;;;;;;5004088;28;20077;-67
2022/05/03 17:02:00;;;;;;;8.00;2.13;;;14.80;98.90;;;;;;5001627;28;20083;-67
2022/05/03 17:04:27;;;;;;;10.68;2.97;;;14.00;98.60;;;;;;4994763;28;20148;-67
2022/05/03 17:06:52;;;;;;;7.43;2.30;;;13.90;98.50;;;;;;5005491;28;20388;-67
2022/05/03 17:09:18;;;;;;;13.02;2.72;;;13.70;99.00;;;;;;5005836;28;20183;-67
2022/05/03 17:11:44;;;;;;;14.35;3.13;;;13.50;99.40;;;;;;5003493;28;20378;-67
2022/05/03 17:14:14;;;;;;;12.75;3.00;;;13.50;99.70;;;;;;5007319;28;20042;-67
2022/05/03 17:16:42;;;;;;;10.07;3.05;;;13.40;99.90;;;;;;5003777;28;20053;-68
2022/05/03 17:19:08;;;;;;;12.45;3.05;;;13.30;99.90;;;;;;5007267;28;20172;-68
2022/05/03 17:21:35;;;;;;;11.07;3.10;;;13.30;99.90;;;;;;5007421;28;20042;-68
2022/05/03 17:24:02;;;;;;;9.98;2.70;;;13.20;99.90;;;;;;4988033;28;20033;-68
2022/05/03 17:26:28;;;;;;;9.80;2.70;;;13.00;99.90;;;;;;5007352;28;20061;-68
2022/05/03 17:28:57;;;;;;;9.35;3.13;;;12.90;99.90;;;;;;5007056;28;20046;-67
2022/05/03 17:31:23;;;;;;;8.60;2.72;;;12.80;99.90;;;;;;5008183;28;20148;-68
2022/05/03 17:33:49;;;;;;;10.90;2.70;;;12.70;99.90;;;;;;5006129;28;20101;-68
2022/05/03 17:36:15;;;;;;;8.45;2.70;;;12.80;99.90;;;;;;4990764;28;20042;-68
2022/05/03 17:38:42;;;;;;;11.38;2.67;;;13.60;99.90;;;;;;5007160;28;20038;-68
2022/05/03 17:41:08;;;;;;;12.57;2.80;;;12.80;99.90;;;;;;5005316;28;20129;-68
2022/05/03 17:43:34;;;;;;;12.25;2.88;;;12.50;99.90;;;;;;4990300;28;20136;-68
2022/05/03 17:46:00;;;;;;;10.27;3.20;;;13.40;99.90;;;;;;4984858;28;20366;-68
2022/05/03 17:48:26;;;;;;;9.38;2.70;;;12.50;99.90;;;;;;5010640;28;20053;-68
2022/05/03 17:50:52;;;;;;;12.40;2.90;;;12.50;99.90;;;;;;5010736;28;20052;-68
2022/05/03 17:56:02;;;;;;;11.32;2.60;;;12.40;99.90;;;;;;5010417;28;20128;-68
2022/05/03 17:58:29;;;;;;;9.20;2.85;;;12.30;99.90;;;;;;5010686;28;20497;-68
2022/05/03 18:00:55;;;;;;;13.30;3.03;;;12.30;99.90;;;;;;4995271;28;20065;-68
2022/05/03 18:03:21;;;;;;;10.20;2.90;;;12.30;99.90;;;;;;5019925;28;20150;-68
2022/05/03 18:05:47;;;;;;;11.05;2.70;;;12.20;99.90;;;;;;5012751;28;20033;-68
2022/05/03 18:08:13;;;;;;;13.38;3.13;;;12.40;99.90;;;;;;5012500;28;20057;-68
2022/05/03 18:10:39;;;;;;;10.95;2.88;;;12.30;99.90;;;;;;4996468;28;20059;-67
2022/05/03 18:13:05;;;;;;;13.73;2.70;;;12.20;99.90;;;;;;5024784;28;20050;-67
2022/05/03 18:15:30;;;;;;;10.68;2.67;;;12.20;99.90;;;;;;4992265;28;20109;-67
2022/05/03 18:17:57;;;;;;;10.93;2.88;;;12.20;99.90;;;;;;5010563;28;20034;-67
2022/05/03 18:20:23;;;;;;;11.52;2.90;;;12.00;99.90;;;;;;5010712;28;20045;-66
2022/05/03 18:22:50;;;;;;;11.85;2.63;;;11.90;99.90;;;;;;4991843;28;20486;-67
2022/05/03 18:25:18;;;;;;;11.70;3.03;;;11.90;99.90;;;;;;5010583;28;20054;-67
2022/05/03 18:27:44;;;;;;;10.38;2.67;;;11.80;99.90;;;;;;5010474;28;20375;-67
2022/05/03 18:30:10;;;;;;;7.03;2.50;;;11.70;99.90;;;;;;5009343;28;20045;-67
2022/05/03 18:32:36;;;;;;;11.82;2.63;;;11.60;99.90;;;;;;4973748;28;20125;-67
2022/05/03 18:35:03;;;;;;;12.73;2.90;;;11.60;99.90;;;;;;4990638;28;20117;-67
2022/05/03 18:37:29;;;;;;;13.02;2.95;;;11.60;99.90;;;;;;4990009;28;20867;-67
2022/05/03 18:39:55;;;;;;;13.93;3.10;;;11.60;99.90;;;;;;4991102;28;20038;-67
2022/05/03 18:42:23;;;;;;;12.68;3.17;;;12.10;99.90;;;;;;4989813;28;20166;-68
2022/05/03 18:44:49;;;;;;;11.43;3.00;;;11.50;99.90;;;;;;4999619;28;20054;-67